createdAt,value
2018-11-02T00:02:07.285Z,21.73
2018-11-02T00:04:35.744Z,21.40
2018-11-02T00:07:04.190Z,21.60
2018-11-02T00:09:32.637Z,21.10
2018-11-02T00:12:01.064Z,22.70
2018-11-02T00:14:29.512Z,22.20
2018-11-02T00:16:58.018Z,21.53
2018-11-02T00:19:31.851Z,21.70
2018-11-02T00:22:01.849Z,19.63
2018-11-02T00:24:30.337Z,22.00
2018-11-02T00:26:59.557Z,23.73
2018-11-02T00:29:28.392Z,23.90
2018-11-02T00:31:56.887Z,24.87
2018-11-02T00:34:25.295Z,23.07
2018-11-02T00:36:53.737Z,21.83
2018-11-02T00:39:22.203Z,15.13
2018-11-02T00:41:50.961Z,22.50
2018-11-02T00:44:19.457Z,22.83
2018-11-02T00:46:47.934Z,22.50
2018-11-02T00:49:16.350Z,24.27
2018-11-02T00:51:44.797Z,36.00
2018-11-02T00:54:13.256Z,42.70
2018-11-02T00:56:41.721Z,35.10
2018-11-02T00:59:10.148Z,37.60
2018-11-02T01:01:38.628Z,24.27
2018-11-02T01:04:07.267Z,22.50
2018-11-02T01:06:35.713Z,20.20
2018-11-02T01:09:04.222Z,20.20
2018-11-02T01:11:32.692Z,21.70
2018-11-02T01:14:01.128Z,19.80
2018-11-02T01:16:29.629Z,19.03
2018-11-02T01:18:58.032Z,20.97
2018-11-02T01:21:26.521Z,35.00
2018-11-02T01:23:54.954Z,40.63
2018-11-02T01:26:23.404Z,30.10
2018-11-02T01:28:51.852Z,19.33
2018-11-02T01:31:20.302Z,18.00
2018-11-02T01:33:48.737Z,20.43
2018-11-02T01:36:17.181Z,21.00
2018-11-02T01:38:45.587Z,23.10
2018-11-02T01:41:14.035Z,22.40
2018-11-02T01:43:42.478Z,23.00
2018-11-02T01:46:10.947Z,24.00
2018-11-02T01:48:39.388Z,22.70
2018-11-02T01:51:07.830Z,21.60
2018-11-02T01:53:36.272Z,20.70
2018-11-02T01:56:05.061Z,20.30
2018-11-02T01:58:33.517Z,21.23
2018-11-02T02:01:01.998Z,20.33
2018-11-02T02:03:30.473Z,21.90
2018-11-02T02:05:58.901Z,21.43
2018-11-02T02:08:27.345Z,20.20
2018-11-02T02:10:55.774Z,20.37
2018-11-02T02:13:24.275Z,20.33
2018-11-02T02:15:52.705Z,20.43
2018-11-02T02:18:24.055Z,21.20
2018-11-02T02:20:52.483Z,20.93
2018-11-02T02:23:20.999Z,19.80
2018-11-02T02:25:49.429Z,18.50
2018-11-02T02:28:17.945Z,18.33
2018-11-02T02:30:46.369Z,18.47
2018-11-02T02:33:14.848Z,17.50
2018-11-02T02:35:43.281Z,16.17
2018-11-02T02:38:11.733Z,16.47
2018-11-02T02:40:40.149Z,16.30
2018-11-02T02:43:08.636Z,16.20
2018-11-02T02:45:37.076Z,15.97
2018-11-02T02:48:05.701Z,14.57
2018-11-02T02:50:34.137Z,15.57
2018-11-02T02:53:02.614Z,15.47
2018-11-02T02:55:31.045Z,16.07
2018-11-02T02:57:59.518Z,15.73
2018-11-02T03:00:27.941Z,15.37
2018-11-02T03:02:56.385Z,16.30
2018-11-02T03:05:24.854Z,15.47
2018-11-02T03:07:53.290Z,16.00
2018-11-02T03:10:22.084Z,15.30
2018-11-02T03:12:50.550Z,15.33
2018-11-02T03:15:19.021Z,14.40
2018-11-02T03:17:47.436Z,14.50
2018-11-02T03:20:15.893Z,14.43
2018-11-02T03:22:44.393Z,14.60
2018-11-02T03:25:13.609Z,13.97
2018-11-02T03:27:42.037Z,13.63
2018-11-02T03:30:11.638Z,13.17
2018-11-02T03:32:40.080Z,13.87
2018-11-02T03:35:08.709Z,13.60
2018-11-02T03:37:37.156Z,14.90
2018-11-02T03:40:06.322Z,15.70
2018-11-02T03:42:34.830Z,14.60
2018-11-02T03:45:03.290Z,15.10
2018-11-02T03:47:31.736Z,15.07
2018-11-02T03:50:00.199Z,15.80
2018-11-02T03:52:28.633Z,16.17
2018-11-02T03:54:57.603Z,15.50
2018-11-02T03:57:26.007Z,13.80
2018-11-02T03:59:54.542Z,13.70
2018-11-02T04:02:22.961Z,14.37
2018-11-02T04:04:51.404Z,15.33
2018-11-02T04:07:19.833Z,14.70
2018-11-02T04:09:48.289Z,15.60
2018-11-02T04:12:16.731Z,16.30
2018-11-02T04:14:45.159Z,14.90
2018-11-02T04:17:13.622Z,15.53
2018-11-02T04:19:42.063Z,15.23
2018-11-02T04:22:10.521Z,15.30
2018-11-02T04:24:39.292Z,16.20
2018-11-02T04:27:07.977Z,16.33
2018-11-02T04:29:36.428Z,15.77
2018-11-02T04:32:05.244Z,16.50
2018-11-02T04:34:33.671Z,16.00
2018-11-02T04:37:02.144Z,16.07
2018-11-02T04:39:30.564Z,17.00
2018-11-02T04:41:59.026Z,17.90
2018-11-02T04:44:27.478Z,17.90
2018-11-02T04:46:55.924Z,17.83
2018-11-02T04:49:24.393Z,17.20
2018-11-02T04:51:52.859Z,18.27
2018-11-02T04:54:21.279Z,17.43
2018-11-02T04:56:49.765Z,17.30
2018-11-02T04:59:18.196Z,17.20
2018-11-02T05:01:46.652Z,18.23
2018-11-02T05:04:15.116Z,17.13
2018-11-02T05:06:43.588Z,17.57
2018-11-02T05:09:11.998Z,17.40
2018-11-02T05:11:40.480Z,19.03
2018-11-02T05:14:08.902Z,17.77
2018-11-02T05:16:37.332Z,16.00
2018-11-02T05:19:05.846Z,16.73
2018-11-02T05:21:34.323Z,16.40
2018-11-02T05:24:02.740Z,16.37
2018-11-02T05:26:31.260Z,16.40
2018-11-02T05:28:59.688Z,15.10
2018-11-02T05:31:28.134Z,17.30
2018-11-02T05:33:56.584Z,16.57
2018-11-02T05:36:24.998Z,17.27
2018-11-02T05:38:53.473Z,17.03
2018-11-02T05:41:21.893Z,18.47
2018-11-02T05:43:50.393Z,18.10
2018-11-02T05:46:18.890Z,18.07
2018-11-02T05:48:47.341Z,18.57
2018-11-02T05:51:15.773Z,17.63
2018-11-02T05:53:44.226Z,17.70
2018-11-02T05:56:12.686Z,16.43
2018-11-02T05:58:41.129Z,18.00
2018-11-02T06:01:09.549Z,16.17
2018-11-02T06:03:37.997Z,16.07
2018-11-02T06:06:06.454Z,15.83
2018-11-02T06:08:34.936Z,15.00
2018-11-02T06:11:03.402Z,14.67
2018-11-02T06:13:31.894Z,14.87
2018-11-02T06:16:00.323Z,13.43
2018-11-02T06:18:28.748Z,13.77
2018-11-02T06:20:57.169Z,13.97
2018-11-02T06:23:25.635Z,13.60
2018-11-02T06:25:54.048Z,13.83
2018-11-02T06:28:22.491Z,12.37
2018-11-02T06:30:50.908Z,13.03
2018-11-02T06:33:19.363Z,13.93
2018-11-02T06:35:47.788Z,11.93
2018-11-02T06:38:16.258Z,12.90
2018-11-02T06:40:44.714Z,13.57
2018-11-02T06:43:13.181Z,13.17
2018-11-02T06:45:41.595Z,13.43
2018-11-02T06:48:10.045Z,12.00
2018-11-02T06:50:38.570Z,12.30
2018-11-02T06:53:06.978Z,12.93
2018-11-02T06:55:35.443Z,12.40
2018-11-02T06:58:03.890Z,13.03
2018-11-02T07:00:32.458Z,12.27
2018-11-02T07:03:00.800Z,11.63
2018-11-02T07:05:29.236Z,11.77
2018-11-02T07:07:57.772Z,12.30
2018-11-02T07:10:28.955Z,11.27
2018-11-02T07:12:57.417Z,11.20
2018-11-02T07:15:25.835Z,10.90
2018-11-02T07:17:54.268Z,11.30
2018-11-02T07:20:22.753Z,10.90
2018-11-02T07:22:51.179Z,10.97
2018-11-02T07:25:19.760Z,10.63
2018-11-02T07:27:48.068Z,10.63
2018-11-02T07:30:16.594Z,10.13
2018-11-02T07:32:44.975Z,10.30
2018-11-02T07:35:13.409Z,9.93
2018-11-02T07:37:41.838Z,9.97
2018-11-02T07:40:11.421Z,9.97
2018-11-02T07:42:40.205Z,10.20
2018-11-02T07:45:09.361Z,10.40
2018-11-02T07:47:37.886Z,9.90
2018-11-02T07:50:08.354Z,9.37
2018-11-02T07:52:36.804Z,9.40
2018-11-02T07:55:06.281Z,8.70
2018-11-02T07:57:34.738Z,8.47
2018-11-02T08:00:03.237Z,8.33
2018-11-02T08:02:31.654Z,8.40
2018-11-02T08:05:00.113Z,8.73
2018-11-02T08:07:28.537Z,8.13
2018-11-02T08:09:56.981Z,8.07
2018-11-02T08:12:25.393Z,8.17
2018-11-02T08:14:53.826Z,7.80
2018-11-02T08:17:22.278Z,7.20
2018-11-02T08:19:50.718Z,8.00
2018-11-02T08:22:19.143Z,8.40
2018-11-02T08:24:47.570Z,7.50
2018-11-02T08:27:16.009Z,8.30
2018-11-02T08:29:44.488Z,7.87
2018-11-02T08:32:13.056Z,7.70
2018-11-02T08:34:41.501Z,6.90
2018-11-02T08:37:09.946Z,6.50
2018-11-02T08:39:38.357Z,7.17
2018-11-02T08:42:06.994Z,7.20
2018-11-02T08:44:35.457Z,6.27
2018-11-02T08:47:03.875Z,7.60
2018-11-02T08:49:32.419Z,6.60
2018-11-02T08:52:00.885Z,7.00
2018-11-02T08:54:29.395Z,6.73
2018-11-02T08:56:57.804Z,7.10
2018-11-02T08:59:26.361Z,6.17
2018-11-02T09:01:54.689Z,5.97
2018-11-02T09:04:23.160Z,6.67
2018-11-02T09:06:51.594Z,6.33
2018-11-02T09:09:20.053Z,6.33
2018-11-02T09:11:48.487Z,6.43
2018-11-02T09:14:16.900Z,6.13
2018-11-02T09:16:45.384Z,6.60
2018-11-02T09:19:13.826Z,5.90
2018-11-02T09:21:42.293Z,5.80
2018-11-02T09:24:10.737Z,6.47
2018-11-02T09:26:39.182Z,6.17
2018-11-02T09:29:07.631Z,6.37
2018-11-02T09:31:36.058Z,6.23
2018-11-02T09:34:04.505Z,6.20
2018-11-02T09:36:32.951Z,6.37
2018-11-02T09:39:01.470Z,6.00
2018-11-02T09:41:29.928Z,5.87
2018-11-02T09:43:58.447Z,5.80
2018-11-02T09:46:29.141Z,5.10
2018-11-02T09:48:58.629Z,6.10
2018-11-02T09:51:29.203Z,5.80
2018-11-02T09:53:58.915Z,6.20
2018-11-02T09:56:29.271Z,5.40
2018-11-02T09:58:59.564Z,5.87
2018-11-02T10:01:30.123Z,6.57
2018-11-02T10:03:59.939Z,6.33
2018-11-02T10:06:28.443Z,5.90
2018-11-02T10:08:56.975Z,5.50
2018-11-02T10:11:25.377Z,5.80
2018-11-02T10:13:55.049Z,5.50
2018-11-02T10:16:23.490Z,6.00
2018-11-02T10:18:52.179Z,5.70
2018-11-02T10:21:20.656Z,5.23
2018-11-02T10:23:49.138Z,6.10
2018-11-02T10:26:17.841Z,5.73
2018-11-02T10:28:46.340Z,5.50
2018-11-02T10:31:14.792Z,5.30
2018-11-02T10:33:43.269Z,4.40
2018-11-02T10:36:11.835Z,5.53
2018-11-02T10:38:40.287Z,5.30
2018-11-02T10:41:09.753Z,4.73
2018-11-02T10:43:38.237Z,5.60
2018-11-02T10:46:06.734Z,4.93
2018-11-02T10:48:35.161Z,5.27
2018-11-02T10:51:03.686Z,4.90
2018-11-02T10:53:32.166Z,4.50
2018-11-02T10:56:00.732Z,4.60
2018-11-02T10:58:29.195Z,5.13
2018-11-02T11:01:03.229Z,4.77
2018-11-02T11:03:31.502Z,4.70
2018-11-02T11:06:00.053Z,5.20
2018-11-02T11:08:28.468Z,4.80
2018-11-02T11:10:56.949Z,4.40
2018-11-02T11:13:25.754Z,4.90
2018-11-02T11:15:53.914Z,4.90
2018-11-02T11:18:22.370Z,4.83
2018-11-02T11:20:50.820Z,4.93
2018-11-02T11:23:19.278Z,4.63
2018-11-02T11:25:47.750Z,5.10
2018-11-02T11:28:16.211Z,4.70
2018-11-02T11:30:44.645Z,5.00
2018-11-02T11:33:13.137Z,4.97
2018-11-02T11:35:41.553Z,4.57
2018-11-02T11:38:10.024Z,4.90
2018-11-02T11:40:38.505Z,4.50
2018-11-02T11:43:06.953Z,4.63
2018-11-02T11:45:35.423Z,4.40
2018-11-02T11:48:03.840Z,4.03
2018-11-02T11:50:32.272Z,4.40
2018-11-02T11:53:00.756Z,4.80
2018-11-02T11:55:29.182Z,4.50
2018-11-02T11:57:57.656Z,4.40
2018-11-02T12:00:26.113Z,5.00
2018-11-02T12:02:54.590Z,4.30
2018-11-02T12:05:24.108Z,5.20
2018-11-02T12:07:52.598Z,6.87
2018-11-02T12:10:23.735Z,5.43
2018-11-02T12:12:52.226Z,4.63
2018-11-02T12:15:21.892Z,3.97
2018-11-02T12:17:51.743Z,2.00
2018-11-02T12:20:21.744Z,1.80
2018-11-02T12:22:51.201Z,1.80
2018-11-02T12:25:19.636Z,1.90
2018-11-02T12:27:48.125Z,2.07
2018-11-02T12:30:17.705Z,2.00
2018-11-02T12:32:46.159Z,1.90
2018-11-02T12:35:15.833Z,1.60
2018-11-02T12:37:44.292Z,2.00
2018-11-02T12:40:14.884Z,1.77
2018-11-02T12:42:43.932Z,1.83
2018-11-02T12:45:13.621Z,1.80
2018-11-02T12:47:42.424Z,1.97
2018-11-02T12:50:19.592Z,1.70
2018-11-02T12:52:48.943Z,1.80
2018-11-02T12:55:17.876Z,1.80
2018-11-02T12:57:46.311Z,1.77
2018-11-02T13:00:16.553Z,2.03
2018-11-02T13:02:45.708Z,2.00
2018-11-02T13:05:14.163Z,1.90
2018-11-02T13:07:42.609Z,1.40
2018-11-02T13:10:12.749Z,1.83
2018-11-02T13:12:41.216Z,1.57
2018-11-02T13:15:12.624Z,1.60
2018-11-02T13:17:42.017Z,1.70
2018-11-02T13:20:11.030Z,1.70
2018-11-02T13:22:40.153Z,2.20
2018-11-02T13:25:10.120Z,21.37
2018-11-02T13:27:38.535Z,1.97
2018-11-02T13:30:07.515Z,1.90
2018-11-02T13:32:36.209Z,15.63
2018-11-02T13:35:04.780Z,1.80
2018-11-02T13:37:33.200Z,1.67
2018-11-02T13:40:01.737Z,1.60
2018-11-02T13:42:30.155Z,1.23
2018-11-02T13:44:58.609Z,1.50
2018-11-02T13:47:27.123Z,1.67
2018-11-02T13:49:55.605Z,1.40
2018-11-02T13:52:24.045Z,1.30
2018-11-02T13:54:52.513Z,1.53
2018-11-02T13:57:20.957Z,1.30
2018-11-02T13:59:49.438Z,1.40
2018-11-02T14:02:17.880Z,1.10
2018-11-02T14:04:46.307Z,1.40
2018-11-02T14:07:14.768Z,1.30
2018-11-02T14:09:43.190Z,1.20
2018-11-02T14:12:11.708Z,1.20
2018-11-02T14:14:40.147Z,1.10
2018-11-02T14:17:08.753Z,0.90
2018-11-02T14:19:37.188Z,1.00
2018-11-02T14:22:05.676Z,1.00
2018-11-02T14:24:34.119Z,2.30
2018-11-02T14:27:02.590Z,1.30
2018-11-02T14:29:31.093Z,0.93
2018-11-02T14:31:59.521Z,0.93
2018-11-02T14:34:27.969Z,1.07
2018-11-02T14:36:56.531Z,1.00
2018-11-02T14:39:24.971Z,1.10
2018-11-02T14:41:53.445Z,0.90
2018-11-02T14:44:21.904Z,0.90
2018-11-02T14:46:50.403Z,0.83
2018-11-02T14:49:18.881Z,1.30
2018-11-02T14:51:47.341Z,1.47
2018-11-02T14:54:15.782Z,1.10
2018-11-02T14:56:44.275Z,1.10
2018-11-02T14:59:12.713Z,1.20
2018-11-02T15:01:41.227Z,1.20
2018-11-02T15:04:09.641Z,1.27
2018-11-02T15:06:38.143Z,1.10
2018-11-02T15:09:10.293Z,1.03
2018-11-02T15:11:38.773Z,1.13
2018-11-02T15:14:07.629Z,1.03
2018-11-02T15:16:36.152Z,1.10
2018-11-02T15:19:04.925Z,1.17
2018-11-02T15:21:33.383Z,1.40
2018-11-02T15:24:01.829Z,1.10
2018-11-02T15:26:30.264Z,1.17
2018-11-02T15:28:58.720Z,1.30
2018-11-02T15:31:27.158Z,1.30
2018-11-02T15:33:55.622Z,1.70
2018-11-02T15:36:24.114Z,1.40
2018-11-02T15:38:52.569Z,1.67
2018-11-02T15:41:20.997Z,2.00
2018-11-02T15:43:49.504Z,1.50
2018-11-02T15:46:17.918Z,1.37
2018-11-02T15:48:46.384Z,1.83
2018-11-02T15:51:14.821Z,2.53
2018-11-02T15:53:43.335Z,3.90
2018-11-02T15:56:11.754Z,3.13
2018-11-02T15:58:40.261Z,3.07
2018-11-02T16:01:08.755Z,2.60
2018-11-02T16:03:37.202Z,1.83
2018-11-02T16:06:05.744Z,6.60
2018-11-02T16:08:34.224Z,18.50
2018-11-02T16:11:02.643Z,3.90
2018-11-02T16:13:31.107Z,14.60
2018-11-02T16:15:59.529Z,3.30
2018-11-02T16:18:27.972Z,1.90
2018-11-02T16:20:56.420Z,1.90
2018-11-02T16:23:24.957Z,6.60
2018-11-02T16:25:53.401Z,14.10
2018-11-02T16:28:21.937Z,40.40
2018-11-02T16:30:50.385Z,47.87
2018-11-02T16:33:18.806Z,7.43
2018-11-02T16:35:47.248Z,6.30
2018-11-02T16:38:15.686Z,7.03
2018-11-02T16:40:44.179Z,3.20
2018-11-02T16:43:12.568Z,4.37
2018-11-02T16:45:41.043Z,5.90
2018-11-02T16:48:09.543Z,5.20
2018-11-02T16:50:37.950Z,5.07
2018-11-02T16:53:06.491Z,5.80
2018-11-02T16:55:34.997Z,3.83
2018-11-02T16:58:03.497Z,3.77
2018-11-02T17:00:31.880Z,3.30
2018-11-02T17:03:00.316Z,3.90
2018-11-02T17:05:28.781Z,4.07
2018-11-02T17:07:57.204Z,2.90
2018-11-02T17:10:25.669Z,2.93
2018-11-02T17:12:54.110Z,4.20
2018-11-02T17:15:22.597Z,28.10
2018-11-02T17:17:51.009Z,3.50
2018-11-02T17:20:19.469Z,3.20
2018-11-02T17:22:48.222Z,3.43
2018-11-02T17:25:16.637Z,5.20
2018-11-02T17:27:45.103Z,7.37
2018-11-02T17:30:14.849Z,5.43
2018-11-02T17:32:43.313Z,4.00
2018-11-02T17:35:12.046Z,3.67
2018-11-02T17:37:40.509Z,3.20
2018-11-02T17:40:10.884Z,3.20
2018-11-02T17:42:39.361Z,3.20
2018-11-02T17:45:08.351Z,3.13
2018-11-02T17:47:37.717Z,3.67
2018-11-02T17:50:06.517Z,4.10
2018-11-02T17:52:34.961Z,4.23
2018-11-02T17:55:03.449Z,4.30
2018-11-02T17:57:31.989Z,5.07
2018-11-02T18:00:00.468Z,5.07
2018-11-02T18:02:28.924Z,4.87
2018-11-02T18:04:57.356Z,5.57
2018-11-02T18:07:25.824Z,5.73
2018-11-02T18:09:54.287Z,7.00
2018-11-02T18:12:22.870Z,6.70
2018-11-02T18:14:51.210Z,7.50
2018-11-02T18:17:19.693Z,7.30
2018-11-02T18:19:48.137Z,6.90
2018-11-02T18:22:16.726Z,5.43
2018-11-02T18:24:45.074Z,5.10
2018-11-02T18:27:13.539Z,4.37
2018-11-02T18:29:42.010Z,4.10
2018-11-02T18:32:10.468Z,4.60
2018-11-02T18:34:38.946Z,4.10
2018-11-02T18:37:07.382Z,4.17
2018-11-02T18:39:35.857Z,3.63
2018-11-02T18:42:04.338Z,4.20
2018-11-02T18:44:32.763Z,4.50
2018-11-02T18:47:01.202Z,3.90
2018-11-02T18:49:29.670Z,4.73
2018-11-02T18:51:58.108Z,4.80
2018-11-02T18:54:26.563Z,5.20
2018-11-02T18:56:54.992Z,5.60
2018-11-02T18:59:23.479Z,5.20
2018-11-02T19:01:51.920Z,6.10
2018-11-02T19:04:20.408Z,6.10
2018-11-02T19:06:48.880Z,6.27
2018-11-02T19:09:17.329Z,4.40
2018-11-02T19:11:45.762Z,3.97
2018-11-02T19:14:14.228Z,4.37
2018-11-02T19:16:42.701Z,5.93
2018-11-02T19:19:11.196Z,7.10
2018-11-02T19:21:39.671Z,6.57
2018-11-02T19:24:08.127Z,5.13
2018-11-02T19:26:36.589Z,4.53
2018-11-02T19:29:05.388Z,5.70
2018-11-02T19:31:33.829Z,7.17
2018-11-02T19:34:02.360Z,8.27
2018-11-02T19:36:30.735Z,6.27
2018-11-02T19:38:59.198Z,5.73
2018-11-02T19:41:27.677Z,5.70
2018-11-02T19:43:56.108Z,6.00
2018-11-02T19:46:24.570Z,4.70
2018-11-02T19:48:53.029Z,2.80
2018-11-02T19:51:21.474Z,2.60
2018-11-02T19:53:49.919Z,4.10
2018-11-02T19:56:18.356Z,4.40
2018-11-02T19:58:46.777Z,3.10
2018-11-02T20:01:15.305Z,2.70
2018-11-02T20:03:43.741Z,2.97
2018-11-02T20:06:12.205Z,2.47
2018-11-02T20:08:40.733Z,2.90
2018-11-02T20:11:09.237Z,3.67
2018-11-02T20:13:37.708Z,4.30
2018-11-02T20:16:06.469Z,5.47
2018-11-02T20:18:34.892Z,3.80
2018-11-02T20:21:03.360Z,3.40
2018-11-02T20:23:31.812Z,3.73
2018-11-02T20:26:00.288Z,4.43
2018-11-02T20:28:28.684Z,3.50
2018-11-02T20:30:57.139Z,4.03
2018-11-02T20:33:25.573Z,4.30
2018-11-02T20:35:54.025Z,3.47
2018-11-02T20:38:22.453Z,10.13
2018-11-02T20:40:50.892Z,4.63
2018-11-02T20:43:19.339Z,5.87
2018-11-02T20:45:47.789Z,8.27
2018-11-02T20:48:16.236Z,10.10
2018-11-02T20:50:44.702Z,6.30
2018-11-02T20:53:13.137Z,9.47
2018-11-02T20:55:41.577Z,15.47
2018-11-02T20:58:10.076Z,17.40
2018-11-02T21:00:38.518Z,15.50
2018-11-02T21:03:07.000Z,7.53
2018-11-02T21:05:35.452Z,11.63
2018-11-02T21:08:04.001Z,9.77
2018-11-02T21:10:32.418Z,12.63
2018-11-02T21:13:00.913Z,10.73
2018-11-02T21:15:29.343Z,11.90
2018-11-02T21:17:57.805Z,8.57
2018-11-02T21:20:26.897Z,12.83
2018-11-02T21:22:55.325Z,12.97
2018-11-02T21:25:23.754Z,17.80
2018-11-02T21:27:52.216Z,9.03
2018-11-02T21:30:23.016Z,5.33
2018-11-02T21:32:52.066Z,8.37
2018-11-02T21:35:21.069Z,9.70
2018-11-02T21:37:49.914Z,7.27
2018-11-02T21:40:19.687Z,10.30
2018-11-02T21:42:48.157Z,14.27
2018-11-02T21:45:18.010Z,9.90
2018-11-02T21:47:46.730Z,9.37
2018-11-02T21:50:15.614Z,7.30
2018-11-02T21:52:44.210Z,6.70
2018-11-02T21:55:12.652Z,7.77
2018-11-02T21:57:41.124Z,6.83
2018-11-02T22:00:15.500Z,8.70
2018-11-02T22:02:44.030Z,10.50
2018-11-02T22:05:13.281Z,5.60
2018-11-02T22:07:42.828Z,6.80
2018-11-02T22:10:12.012Z,6.57
2018-11-02T22:12:40.457Z,6.87
2018-11-02T22:15:09.752Z,6.00
2018-11-02T22:17:38.461Z,7.93
2018-11-02T22:20:08.477Z,6.20
2018-11-02T22:22:36.969Z,5.77
2018-11-02T22:25:06.727Z,6.50
2018-11-02T22:27:35.235Z,7.40
2018-11-02T22:30:03.761Z,6.80
2018-11-02T22:32:32.199Z,7.40
2018-11-02T22:35:00.657Z,7.90
2018-11-02T22:37:29.072Z,7.80
2018-11-02T22:39:57.800Z,8.07
2018-11-02T22:42:26.299Z,10.57
2018-11-02T22:44:54.741Z,8.50
2018-11-02T22:47:23.170Z,5.43
2018-11-02T22:49:51.642Z,6.53
2018-11-02T22:52:20.129Z,6.60
2018-11-02T22:54:48.599Z,6.33
2018-11-02T22:57:17.032Z,11.40
2018-11-02T22:59:45.501Z,10.43
2018-11-02T23:02:13.941Z,9.80
2018-11-02T23:04:42.391Z,8.40
2018-11-02T23:07:10.819Z,6.80
2018-11-02T23:09:39.268Z,8.13
2018-11-02T23:12:07.754Z,9.57
2018-11-02T23:14:36.202Z,8.13
2018-11-02T23:17:04.670Z,6.83
2018-11-02T23:19:33.164Z,7.87
2018-11-02T23:22:01.566Z,6.60
2018-11-02T23:24:30.033Z,6.70
2018-11-02T23:26:58.479Z,6.73
2018-11-02T23:29:26.995Z,9.20
2018-11-02T23:31:55.380Z,10.10
2018-11-02T23:34:23.831Z,9.07
2018-11-02T23:36:52.271Z,10.80
2018-11-02T23:39:20.712Z,8.90
2018-11-02T23:41:49.149Z,8.50
2018-11-02T23:44:17.596Z,7.80
2018-11-02T23:46:46.021Z,7.40
2018-11-02T23:49:14.718Z,8.73
2018-11-02T23:51:43.160Z,8.57
2018-11-02T23:54:11.622Z,11.07
2018-11-02T23:56:40.068Z,14.43
2018-11-02T23:59:08.537Z,12.63
